createdAt,value
2017-09-09T00:00:55.240Z,10.00
2017-09-09T00:01:55.959Z,10.00
2017-09-09T00:02:56.677Z,9.00
2017-09-09T00:03:57.415Z,10.00
2017-09-09T00:04:58.159Z,10.00
2017-09-09T00:05:58.874Z,8.00
2017-09-09T00:06:59.594Z,9.00
2017-09-09T00:08:00.312Z,10.00
2017-09-09T00:09:01.051Z,8.00
2017-09-09T00:10:01.770Z,8.00
2017-09-09T00:11:02.510Z,10.00
2017-09-09T00:12:03.229Z,8.00
2017-09-09T00:13:03.947Z,11.00
2017-09-09T00:14:04.684Z,6.00
2017-09-09T00:15:05.404Z,7.00
2017-09-09T00:16:06.119Z,6.00
2017-09-09T00:17:06.837Z,7.00
2017-09-09T00:18:07.556Z,10.00
2017-09-09T00:19:08.273Z,4.00
2017-09-09T00:20:08.991Z,6.00
2017-09-09T00:21:09.708Z,5.00
2017-09-09T00:22:10.424Z,7.00
2017-09-09T00:23:11.161Z,6.00
2017-09-09T00:24:11.894Z,8.00
2017-09-09T00:25:12.615Z,10.00
2017-09-09T00:26:13.331Z,7.00
2017-09-09T00:27:14.047Z,6.00
2017-09-09T00:28:14.765Z,6.00
2017-09-09T00:30:16.110Z,8.00
2017-09-09T00:31:16.828Z,7.00
2017-09-09T00:32:17.573Z,7.00
2017-09-09T00:33:18.289Z,8.00
2017-09-09T00:34:19.009Z,6.00
2017-09-09T00:35:19.727Z,7.00
2017-09-09T00:36:20.465Z,8.00
2017-09-09T00:37:21.186Z,6.00
2017-09-09T00:38:21.925Z,6.00
2017-09-09T00:39:22.666Z,6.00
2017-09-09T00:40:23.385Z,5.00
2017-09-09T00:41:24.104Z,7.00
2017-09-09T00:42:24.825Z,6.00
2017-09-09T00:43:25.542Z,6.00
2017-09-09T00:44:26.263Z,6.00
2017-09-09T00:45:26.981Z,7.00
2017-09-09T00:46:27.722Z,6.00
2017-09-09T00:47:28.441Z,7.00
2017-09-09T00:48:29.160Z,6.00
2017-09-09T00:49:29.905Z,7.00
2017-09-09T00:50:30.621Z,6.00
2017-09-09T00:51:31.342Z,7.00
2017-09-09T00:52:32.063Z,5.00
2017-09-09T00:53:32.783Z,8.00
2017-09-09T00:54:33.505Z,6.00
2017-09-09T00:55:34.222Z,5.00
2017-09-09T00:56:34.942Z,6.00
2017-09-09T00:57:35.664Z,6.00
2017-09-09T00:58:36.384Z,5.00
2017-09-09T00:59:37.126Z,8.00
2017-09-09T01:00:37.872Z,8.00
2017-09-09T01:01:38.589Z,7.00
2017-09-09T01:02:39.331Z,8.00
2017-09-09T01:03:40.053Z,6.00
2017-09-09T01:04:40.772Z,8.00
2017-09-09T01:05:41.515Z,7.00
2017-09-09T01:06:42.238Z,8.00
2017-09-09T01:07:42.956Z,7.00
2017-09-09T01:08:43.677Z,10.00
2017-09-09T01:09:44.420Z,7.00
2017-09-09T01:10:45.140Z,9.00
2017-09-09T01:11:45.863Z,11.00
2017-09-09T01:12:46.581Z,9.00
2017-09-09T01:13:47.325Z,8.00
2017-09-09T01:14:48.047Z,9.00
2017-09-09T01:15:48.765Z,9.00
2017-09-09T01:16:49.484Z,7.00
2017-09-09T01:17:50.207Z,10.00
2017-09-09T01:18:50.924Z,7.00
2017-09-09T01:19:51.642Z,7.00
2017-09-09T01:20:52.374Z,9.00
2017-09-09T01:21:53.080Z,10.00
2017-09-09T01:22:53.804Z,10.00
2017-09-09T01:23:54.527Z,10.00
2017-09-09T01:24:55.269Z,9.00
2017-09-09T01:25:55.986Z,9.00
2017-09-09T01:26:56.731Z,11.00
2017-09-09T01:27:57.451Z,9.00
2017-09-09T01:28:58.169Z,10.00
2017-09-09T01:29:58.913Z,11.00
2017-09-09T01:30:59.633Z,11.00
2017-09-09T01:32:00.375Z,11.00
2017-09-09T01:33:01.098Z,10.00
2017-09-09T01:34:01.817Z,11.00
2017-09-09T01:35:02.541Z,11.00
2017-09-09T01:36:03.260Z,11.00
2017-09-09T01:37:04.003Z,10.00
2017-09-09T01:38:04.725Z,10.00
2017-09-09T01:39:05.472Z,11.00
2017-09-09T01:40:06.191Z,14.00
2017-09-09T01:41:06.913Z,13.00
2017-09-09T01:42:07.635Z,12.00
2017-09-09T01:43:08.357Z,14.00
2017-09-09T01:44:09.076Z,12.00
2017-09-09T01:45:09.798Z,12.00
2017-09-09T01:46:10.518Z,14.00
2017-09-09T01:47:11.241Z,12.00
2017-09-09T01:48:11.960Z,13.00
2017-09-09T01:49:12.713Z,12.00
2017-09-09T01:50:13.428Z,14.00
2017-09-09T01:51:14.146Z,14.00
2017-09-09T01:52:14.866Z,12.00
2017-09-09T01:53:15.586Z,14.00
2017-09-09T01:54:16.314Z,12.00
2017-09-09T01:55:17.026Z,12.00
2017-09-09T01:56:17.770Z,12.00
2017-09-09T01:57:18.495Z,14.00
2017-09-09T01:58:19.237Z,13.00
2017-09-09T01:59:19.958Z,12.00
2017-09-09T02:00:20.682Z,13.00
2017-09-09T02:01:21.401Z,12.00
2017-09-09T02:02:22.122Z,12.00
2017-09-09T02:03:22.866Z,12.00
2017-09-09T02:04:23.586Z,13.00
2017-09-09T02:05:24.308Z,11.00
2017-09-09T02:06:25.028Z,12.00
2017-09-09T02:07:25.748Z,12.00
2017-09-09T02:08:26.474Z,12.00
2017-09-09T02:09:27.195Z,9.00
2017-09-09T02:10:27.915Z,11.00
2017-09-09T02:11:28.637Z,13.00
2017-09-09T02:12:29.358Z,11.00
2017-09-09T02:13:30.076Z,11.00
2017-09-09T02:14:30.821Z,10.00
2017-09-09T02:15:31.564Z,9.00
2017-09-09T02:16:32.283Z,9.00
2017-09-09T02:17:33.005Z,11.00
2017-09-09T02:18:33.745Z,9.00
2017-09-09T02:19:34.463Z,9.00
2017-09-09T02:20:35.186Z,9.00
2017-09-09T02:21:35.928Z,8.00
2017-09-09T02:22:36.648Z,9.00
2017-09-09T02:23:37.368Z,8.00
2017-09-09T02:24:38.090Z,8.00
2017-09-09T02:25:38.807Z,9.00
2017-09-09T02:26:39.553Z,8.00
2017-09-09T02:27:40.271Z,8.00
2017-09-09T02:28:41.014Z,8.00
2017-09-09T02:29:41.731Z,7.00
2017-09-09T02:30:42.450Z,8.00
2017-09-09T02:31:43.169Z,7.00
2017-09-09T02:32:43.884Z,6.00
2017-09-09T02:33:44.622Z,6.00
2017-09-09T02:34:45.361Z,6.00
2017-09-09T02:35:46.102Z,7.00
2017-09-09T02:36:46.821Z,6.00
2017-09-09T02:37:47.540Z,7.00
2017-09-09T02:38:48.258Z,8.00
2017-09-09T02:39:48.977Z,7.00
2017-09-09T02:40:49.697Z,7.00
2017-09-09T02:41:50.442Z,9.00
2017-09-09T02:42:51.161Z,5.00
2017-09-09T02:43:51.881Z,6.00
2017-09-09T02:44:52.598Z,6.00
2017-09-09T02:45:53.318Z,6.00
2017-09-09T02:46:54.058Z,5.00
2017-09-09T02:47:54.778Z,6.00
2017-09-09T02:48:55.522Z,6.00
2017-09-09T02:49:56.240Z,7.00
2017-09-09T02:50:56.962Z,6.00
2017-09-09T02:51:57.708Z,6.00
2017-09-09T02:52:58.425Z,6.00
2017-09-09T02:53:59.143Z,5.00
2017-09-09T02:54:59.868Z,6.00
2017-09-09T02:56:00.578Z,6.00
2017-09-09T02:57:01.298Z,6.00
2017-09-09T02:58:02.036Z,6.00
2017-09-09T02:59:02.755Z,5.00
2017-09-09T03:00:03.478Z,5.00
2017-09-09T03:01:04.198Z,6.00
2017-09-09T03:02:04.918Z,5.00
2017-09-09T03:03:05.634Z,7.00
2017-09-09T03:04:06.353Z,5.00
2017-09-09T03:05:07.071Z,5.00
2017-09-09T03:06:07.809Z,6.00
2017-09-09T03:07:08.528Z,5.00
2017-09-09T03:08:09.268Z,5.00
2017-09-09T03:09:10.009Z,6.00
2017-09-09T03:10:10.730Z,5.00
2017-09-09T03:11:11.445Z,5.00
2017-09-09T03:12:12.185Z,6.00
2017-09-09T03:13:12.905Z,5.00
2017-09-09T03:14:13.625Z,6.00
2017-09-09T03:15:14.363Z,6.00
2017-09-09T03:16:15.080Z,6.00
2017-09-09T03:17:15.802Z,6.00
2017-09-09T03:18:16.540Z,5.00
2017-09-09T03:19:17.282Z,5.00
2017-09-09T03:20:17.999Z,6.00
2017-09-09T03:21:18.722Z,6.00
2017-09-09T03:22:19.459Z,5.00
2017-09-09T03:23:20.200Z,6.00
2017-09-09T03:24:20.919Z,6.00
2017-09-09T03:25:21.637Z,5.00
2017-09-09T03:26:22.356Z,6.00
2017-09-09T03:27:23.076Z,5.00
2017-09-09T03:28:23.798Z,6.00
2017-09-09T03:29:24.513Z,5.00
2017-09-09T03:30:25.233Z,8.00
2017-09-09T03:31:25.950Z,5.00
2017-09-09T03:32:26.669Z,6.00
2017-09-09T03:33:27.386Z,6.00
2017-09-09T03:34:28.103Z,7.00
2017-09-09T03:35:28.822Z,6.00
2017-09-09T03:36:29.562Z,6.00
2017-09-09T03:37:30.284Z,7.00
2017-09-09T03:38:31.024Z,6.00
2017-09-09T03:39:31.742Z,7.00
2017-09-09T03:40:32.464Z,7.00
2017-09-09T03:41:33.180Z,7.00
2017-09-09T03:42:33.900Z,7.00
2017-09-09T03:43:34.641Z,7.00
2017-09-09T03:44:35.359Z,6.00
2017-09-09T03:45:36.079Z,7.00
2017-09-09T03:46:36.799Z,7.00
2017-09-09T03:47:37.520Z,7.00
2017-09-09T03:48:38.261Z,6.00
2017-09-09T03:49:38.984Z,8.00
2017-09-09T03:50:39.699Z,7.00
2017-09-09T03:51:40.417Z,7.00
2017-09-09T03:52:41.137Z,6.00
2017-09-09T03:53:41.885Z,8.00
2017-09-09T03:54:42.601Z,7.00
2017-09-09T03:55:43.318Z,8.00
2017-09-09T03:56:44.040Z,7.00
2017-09-09T03:57:44.759Z,7.00
2017-09-09T03:58:45.479Z,8.00
2017-09-09T03:59:46.197Z,7.00
2017-09-09T04:00:46.917Z,8.00
2017-09-09T04:01:47.636Z,9.00
2017-09-09T04:02:48.352Z,9.00
2017-09-09T04:03:49.070Z,9.00
2017-09-09T04:04:49.790Z,9.00
2017-09-09T04:05:50.532Z,8.00
2017-09-09T04:06:51.254Z,9.00
2017-09-09T04:07:51.971Z,8.00
2017-09-09T04:08:52.689Z,8.00
2017-09-09T04:09:53.407Z,9.00
2017-09-09T04:10:54.128Z,9.00
2017-09-09T04:11:54.849Z,10.00
2017-09-09T04:12:55.592Z,10.00
2017-09-09T04:13:56.313Z,8.00
2017-09-09T04:14:57.035Z,10.00
2017-09-09T04:15:57.758Z,10.00
2017-09-09T04:16:58.503Z,10.00
2017-09-09T04:17:59.248Z,10.00
2017-09-09T04:18:59.965Z,9.00
2017-09-09T04:20:00.713Z,9.00
2017-09-09T04:21:01.455Z,9.00
2017-09-09T04:22:02.197Z,10.00
2017-09-09T04:23:02.940Z,11.00
2017-09-09T04:24:03.657Z,10.00
2017-09-09T04:25:04.377Z,10.00
2017-09-09T04:26:05.100Z,11.00
2017-09-09T04:27:05.819Z,8.00
2017-09-09T04:28:06.541Z,10.00
2017-09-09T04:29:07.261Z,11.00
2017-09-09T04:30:07.981Z,12.00
2017-09-09T04:31:08.725Z,12.00
2017-09-09T04:32:09.465Z,10.00
2017-09-09T04:33:10.188Z,12.00
2017-09-09T04:34:10.905Z,9.00
2017-09-09T04:35:11.624Z,11.00
2017-09-09T04:36:12.353Z,15.00
2017-09-09T04:37:13.137Z,12.00
2017-09-09T04:38:13.817Z,11.00
2017-09-09T04:39:14.533Z,11.00
2017-09-09T04:40:15.273Z,10.00
2017-09-09T04:41:15.993Z,10.00
2017-09-09T04:42:16.717Z,12.00
2017-09-09T04:43:17.459Z,12.00
2017-09-09T04:44:18.205Z,13.00
2017-09-09T04:45:18.924Z,12.00
2017-09-09T04:46:19.646Z,13.00
2017-09-09T04:47:20.369Z,10.00
2017-09-09T04:48:21.089Z,12.00
2017-09-09T04:49:21.814Z,10.00
2017-09-09T04:50:22.553Z,11.00
2017-09-09T04:51:23.274Z,11.00
2017-09-09T04:52:23.997Z,10.00
2017-09-09T04:53:24.718Z,12.00
2017-09-09T04:54:25.469Z,10.00
2017-09-09T04:55:26.207Z,11.00
2017-09-09T04:56:26.954Z,12.00
2017-09-09T04:57:27.673Z,11.00
2017-09-09T04:58:28.395Z,11.00
2017-09-09T04:59:29.116Z,9.00
2017-09-09T05:00:29.859Z,11.00
2017-09-09T05:01:30.603Z,12.00
2017-09-09T05:02:31.346Z,10.00
2017-09-09T05:03:32.070Z,13.00
2017-09-09T05:04:32.790Z,11.00
2017-09-09T05:05:33.511Z,12.00
2017-09-09T05:06:34.232Z,12.00
2017-09-09T05:07:34.959Z,14.00
2017-09-09T05:08:35.699Z,13.00
2017-09-09T05:09:36.421Z,14.00
2017-09-09T05:10:37.146Z,13.00
2017-09-09T05:11:37.889Z,14.00
2017-09-09T05:12:38.614Z,13.00
2017-09-09T05:13:39.337Z,15.00
2017-09-09T05:14:40.058Z,13.00
2017-09-09T05:15:40.804Z,14.00
2017-09-09T05:16:41.529Z,16.00
2017-09-09T05:17:42.252Z,15.00
2017-09-09T05:18:42.974Z,13.00
2017-09-09T05:19:43.695Z,14.00
2017-09-09T05:20:44.418Z,14.00
2017-09-09T05:21:45.142Z,12.00
2017-09-09T05:22:45.864Z,13.00
2017-09-09T05:23:46.589Z,15.00
2017-09-09T05:24:47.311Z,16.00
2017-09-09T05:25:48.034Z,16.00
2017-09-09T05:26:48.757Z,15.00
2017-09-09T05:27:49.482Z,15.00
2017-09-09T05:28:50.206Z,16.00
2017-09-09T05:29:50.929Z,15.00
2017-09-09T05:30:51.675Z,17.00
2017-09-09T05:31:52.401Z,16.00
2017-09-09T05:32:53.126Z,12.00
2017-09-09T05:33:53.849Z,14.00
2017-09-09T05:34:54.576Z,13.00
2017-09-09T05:35:55.299Z,14.00
2017-09-09T05:36:56.019Z,15.00
2017-09-09T05:37:56.749Z,13.00
2017-09-09T05:38:57.476Z,13.00
2017-09-09T05:39:58.201Z,13.00
2017-09-09T05:40:58.927Z,14.00
2017-09-09T05:41:59.653Z,14.00
2017-09-09T05:43:00.378Z,14.00
2017-09-09T05:44:01.101Z,12.00
2017-09-09T05:45:01.828Z,13.00
2017-09-09T05:46:02.548Z,17.00
2017-09-09T05:47:03.274Z,14.00
2017-09-09T05:48:04.024Z,13.00
2017-09-09T05:49:04.770Z,12.00
2017-09-09T05:50:05.516Z,13.00
2017-09-09T05:51:06.241Z,14.00
2017-09-09T05:52:06.967Z,12.00
2017-09-09T05:53:07.690Z,12.00
2017-09-09T05:54:08.416Z,14.00
2017-09-09T05:55:09.142Z,13.00
2017-09-09T05:56:09.863Z,10.00
2017-09-09T05:57:10.587Z,13.00
2017-09-09T05:58:11.321Z,10.00
2017-09-09T05:59:12.039Z,12.00
2017-09-09T06:00:12.786Z,13.00
2017-09-09T06:01:13.512Z,12.00
2017-09-09T06:02:14.263Z,11.00
2017-09-09T06:03:14.988Z,11.00
2017-09-09T06:04:15.739Z,14.00
2017-09-09T06:05:16.486Z,12.00
2017-09-09T06:06:17.233Z,12.00
2017-09-09T06:07:17.960Z,15.00
2017-09-09T06:08:18.714Z,15.00
2017-09-09T06:09:19.431Z,14.00
2017-09-09T06:10:20.159Z,11.00
2017-09-09T06:11:20.907Z,11.00
2017-09-09T06:12:21.636Z,12.00
2017-09-09T06:13:22.354Z,14.00
2017-09-09T06:14:23.081Z,12.00
2017-09-09T06:15:23.803Z,12.00
2017-09-09T06:16:24.527Z,12.00
2017-09-09T06:17:25.252Z,15.00
2017-09-09T06:18:25.977Z,12.00
2017-09-09T06:19:26.702Z,13.00
2017-09-09T06:20:27.425Z,11.00
2017-09-09T06:21:28.148Z,11.00
2017-09-09T06:22:28.876Z,14.00
2017-09-09T06:23:29.599Z,13.00
2017-09-09T06:24:30.320Z,9.00
2017-09-09T06:25:31.046Z,12.00
2017-09-09T06:26:31.773Z,12.00
2017-09-09T06:27:32.496Z,11.00
2017-09-09T06:28:33.222Z,11.00
2017-09-09T06:29:33.948Z,11.00
2017-09-09T06:30:34.673Z,11.00
2017-09-09T06:31:35.398Z,12.00
2017-09-09T06:32:36.145Z,11.00
2017-09-09T06:33:36.872Z,11.00
2017-09-09T06:34:37.618Z,12.00
2017-09-09T06:35:38.344Z,12.00
2017-09-09T06:36:39.069Z,9.00
2017-09-09T06:37:39.803Z,10.00
2017-09-09T06:38:40.518Z,10.00
2017-09-09T06:39:41.246Z,10.00
2017-09-09T06:40:41.971Z,11.00
2017-09-09T06:41:42.695Z,12.00
2017-09-09T06:42:43.419Z,11.00
2017-09-09T06:43:44.168Z,11.00
2017-09-09T06:44:44.898Z,11.00
2017-09-09T06:45:45.619Z,9.00
2017-09-09T06:46:46.344Z,11.00
2017-09-09T06:47:47.069Z,9.00
2017-09-09T06:48:47.795Z,12.00
2017-09-09T06:49:48.519Z,10.00
2017-09-09T06:50:49.249Z,12.00
2017-09-09T06:51:49.972Z,11.00
2017-09-09T06:52:50.698Z,13.00
2017-09-09T06:53:51.425Z,15.00
2017-09-09T06:54:52.150Z,12.00
2017-09-09T06:55:52.877Z,10.00
2017-09-09T06:56:53.597Z,10.00
2017-09-09T06:57:54.321Z,13.00
2017-09-09T06:58:55.047Z,11.00
2017-09-09T06:59:55.796Z,12.00
2017-09-09T07:00:56.517Z,11.00
2017-09-09T07:01:57.239Z,11.00
2017-09-09T07:02:57.963Z,10.00
2017-09-09T07:03:58.689Z,13.00
2017-09-09T07:04:59.413Z,12.00
2017-09-09T07:06:00.163Z,11.00
2017-09-09T07:07:00.888Z,11.00
2017-09-09T07:08:01.638Z,10.00
2017-09-09T07:09:02.361Z,10.00
2017-09-09T07:10:03.087Z,10.00
2017-09-09T07:11:03.809Z,10.00
2017-09-09T07:12:04.535Z,9.00
2017-09-09T07:13:05.260Z,8.00
2017-09-09T07:14:05.984Z,8.00
2017-09-09T07:15:06.710Z,9.00
2017-09-09T07:16:07.431Z,7.00
2017-09-09T07:17:08.154Z,9.00
2017-09-09T07:18:08.915Z,7.00
2017-09-09T07:19:09.607Z,8.00
2017-09-09T07:20:10.332Z,9.00
2017-09-09T07:21:11.058Z,7.00
2017-09-09T07:22:11.803Z,7.00
2017-09-09T07:23:12.549Z,6.00
2017-09-09T07:24:13.276Z,7.00
2017-09-09T07:25:14.001Z,9.00
2017-09-09T07:26:14.727Z,7.00
2017-09-09T07:27:15.451Z,8.00
2017-09-09T07:28:16.174Z,9.00
2017-09-09T07:29:16.901Z,9.00
2017-09-09T07:30:17.628Z,9.00
2017-09-09T07:31:18.371Z,11.00
2017-09-09T07:32:19.104Z,9.00
2017-09-09T07:33:19.825Z,10.00
2017-09-09T07:34:20.547Z,9.00
2017-09-09T07:35:21.274Z,12.00
2017-09-09T07:36:21.999Z,8.00
2017-09-09T07:37:22.721Z,9.00
2017-09-09T07:38:23.469Z,9.00
2017-09-09T07:39:24.221Z,11.00
2017-09-09T07:40:24.952Z,11.00
2017-09-09T07:41:25.699Z,10.00
2017-09-09T07:42:26.446Z,9.00
2017-09-09T07:43:27.171Z,9.00
2017-09-09T07:44:27.897Z,11.00
2017-09-09T07:45:28.627Z,10.00
2017-09-09T07:46:29.374Z,10.00
2017-09-09T07:47:30.104Z,11.00
2017-09-09T07:48:30.826Z,11.00
2017-09-09T07:49:31.553Z,9.00
2017-09-09T07:50:32.280Z,12.00
2017-09-09T07:51:33.008Z,10.00
2017-09-09T07:52:33.739Z,10.00
2017-09-09T07:53:34.463Z,11.00
2017-09-09T07:54:35.190Z,11.00
2017-09-09T07:55:35.919Z,12.00
2017-09-09T07:56:36.646Z,12.00
2017-09-09T07:57:37.395Z,13.00
2017-09-09T07:58:38.121Z,13.00
2017-09-09T07:59:38.850Z,15.00
2017-09-09T08:00:39.606Z,12.00
2017-09-09T08:01:40.350Z,12.00
2017-09-09T08:02:41.075Z,14.00
2017-09-09T08:03:41.803Z,13.00
2017-09-09T08:04:42.534Z,13.00
2017-09-09T08:05:43.262Z,12.00
2017-09-09T08:06:44.014Z,13.00
2017-09-09T08:07:44.741Z,11.00
2017-09-09T08:08:45.475Z,12.00
2017-09-09T08:09:46.226Z,13.00
2017-09-09T08:10:46.952Z,15.00
2017-09-09T08:11:47.704Z,12.00
2017-09-09T08:12:48.433Z,12.00
2017-09-09T08:13:49.182Z,14.00
2017-09-09T08:14:49.972Z,12.00
2017-09-09T08:15:50.662Z,15.00
2017-09-09T08:16:51.390Z,13.00
2017-09-09T08:17:52.117Z,14.00
2017-09-09T08:18:52.864Z,13.00
2017-09-09T08:19:53.593Z,15.00
2017-09-09T08:20:54.321Z,17.00
2017-09-09T08:21:55.050Z,15.00
2017-09-09T08:22:55.776Z,17.00
2017-09-09T08:23:56.503Z,14.00
2017-09-09T08:24:57.232Z,13.00
2017-09-09T08:25:57.957Z,20.00
2017-09-09T08:26:58.688Z,15.00
2017-09-09T08:27:59.437Z,15.00
2017-09-09T08:29:00.168Z,16.00
2017-09-09T08:30:00.899Z,17.00
2017-09-09T08:31:01.629Z,14.00
2017-09-09T08:32:02.361Z,14.00
2017-09-09T08:33:03.113Z,17.00
2017-09-09T08:34:03.867Z,14.00
2017-09-09T08:35:04.621Z,14.00
2017-09-09T08:36:05.351Z,13.00
2017-09-09T08:37:06.107Z,14.00
2017-09-09T08:38:06.835Z,12.00
2017-09-09T08:39:07.566Z,14.00
2017-09-09T08:40:08.319Z,11.00
2017-09-09T08:41:09.052Z,10.00
2017-09-09T08:42:09.806Z,12.00
2017-09-09T08:43:10.559Z,10.00
2017-09-09T08:44:11.286Z,10.00
2017-09-09T08:45:12.018Z,11.00
2017-09-09T08:46:12.745Z,9.00
2017-09-09T08:47:13.471Z,9.00
2017-09-09T08:48:14.204Z,10.00
2017-09-09T08:49:14.931Z,11.00
2017-09-09T08:50:15.663Z,10.00
2017-09-09T08:51:16.392Z,8.00
2017-09-09T08:52:17.142Z,10.00
2017-09-09T08:53:17.871Z,10.00
2017-09-09T08:54:18.622Z,10.00
2017-09-09T08:55:19.349Z,10.00
2017-09-09T08:56:20.077Z,12.00
2017-09-09T08:57:20.806Z,11.00
2017-09-09T08:58:21.538Z,8.00
2017-09-09T08:59:22.265Z,12.00
2017-09-09T09:00:23.017Z,9.00
2017-09-09T09:01:23.767Z,10.00
2017-09-09T09:02:24.495Z,8.00
2017-09-09T09:03:25.226Z,10.00
2017-09-09T09:04:25.952Z,6.00
2017-09-09T09:05:26.681Z,7.00
2017-09-09T09:06:27.409Z,6.00
2017-09-09T09:07:28.135Z,7.00
2017-09-09T09:08:28.861Z,7.00
2017-09-09T09:09:29.598Z,7.00
2017-09-09T09:10:30.315Z,7.00
2017-09-09T09:11:31.044Z,6.00
2017-09-09T09:12:31.773Z,6.00
2017-09-09T09:13:32.523Z,6.00
2017-09-09T09:14:33.249Z,5.00
2017-09-09T09:15:33.978Z,8.00
2017-09-09T09:16:34.708Z,6.00
2017-09-09T09:17:35.457Z,6.00
2017-09-09T09:18:36.185Z,6.00
2017-09-09T09:19:36.938Z,7.00
2017-09-09T09:20:37.670Z,6.00
2017-09-09T09:21:38.402Z,6.00
2017-09-09T09:22:39.157Z,6.00
2017-09-09T09:23:39.892Z,5.00
2017-09-09T09:24:40.620Z,4.00
2017-09-09T09:25:41.351Z,5.00
2017-09-09T09:26:42.087Z,4.00
2017-09-09T09:27:42.816Z,5.00
2017-09-09T09:28:43.550Z,5.00
2017-09-09T09:29:44.283Z,4.00
2017-09-09T09:30:45.015Z,3.00
2017-09-09T09:31:45.746Z,4.00
2017-09-09T09:32:46.477Z,4.00
2017-09-09T09:33:47.211Z,3.00
2017-09-09T09:34:47.943Z,4.00
2017-09-09T09:35:48.673Z,4.00
2017-09-09T09:36:49.401Z,4.00
2017-09-09T09:37:50.133Z,3.00
2017-09-09T09:38:50.866Z,4.00
2017-09-09T09:39:51.597Z,3.00
2017-09-09T09:40:52.336Z,5.00
2017-09-09T09:41:53.085Z,4.00
2017-09-09T09:42:53.819Z,4.00
2017-09-09T09:43:54.557Z,4.00
2017-09-09T09:44:55.287Z,4.00
2017-09-09T09:45:56.043Z,4.00
2017-09-09T09:46:56.774Z,4.00
2017-09-09T09:47:57.505Z,3.00
2017-09-09T09:48:58.236Z,4.00
2017-09-09T09:49:58.964Z,5.00
2017-09-09T09:50:59.696Z,4.00
2017-09-09T09:52:00.424Z,4.00
2017-09-09T09:53:01.152Z,4.00
2017-09-09T09:54:01.880Z,4.00
2017-09-09T09:55:02.610Z,4.00
2017-09-09T09:56:03.338Z,4.00
2017-09-09T09:57:04.068Z,4.00
2017-09-09T09:58:04.796Z,4.00
2017-09-09T09:59:05.526Z,5.00
2017-09-09T10:00:06.253Z,4.00
2017-09-09T10:01:06.981Z,5.00
2017-09-09T10:02:07.708Z,4.00
2017-09-09T10:03:08.434Z,5.00
2017-09-09T10:04:09.164Z,3.00
2017-09-09T10:05:09.890Z,4.00
2017-09-09T10:06:10.641Z,5.00
2017-09-09T10:07:11.368Z,5.00
2017-09-09T10:08:12.092Z,4.00
2017-09-09T10:09:12.817Z,4.00
2017-09-09T10:10:13.544Z,4.00
2017-09-09T10:11:14.294Z,5.00
2017-09-09T10:12:15.025Z,5.00
2017-09-09T10:13:15.747Z,4.00
2017-09-09T10:14:16.498Z,5.00
2017-09-09T10:15:17.226Z,4.00
2017-09-09T10:16:17.949Z,5.00
2017-09-09T10:17:18.678Z,4.00
2017-09-09T10:18:19.405Z,4.00
2017-09-09T10:19:20.133Z,4.00
2017-09-09T10:20:20.863Z,4.00
2017-09-09T10:21:21.617Z,4.00
2017-09-09T10:22:22.349Z,4.00
2017-09-09T10:23:23.083Z,5.00
2017-09-09T10:24:23.819Z,3.00
2017-09-09T10:25:24.556Z,5.00
2017-09-09T10:26:25.295Z,2.00
2017-09-09T10:27:26.025Z,3.00
2017-09-09T10:28:26.783Z,3.00
2017-09-09T10:29:27.520Z,3.00
2017-09-09T10:30:28.253Z,3.00
2017-09-09T10:31:29.004Z,4.00
2017-09-09T10:32:29.748Z,3.00
2017-09-09T10:33:30.467Z,4.00
2017-09-09T10:34:31.219Z,3.00
2017-09-09T10:35:31.951Z,4.00
2017-09-09T10:36:32.703Z,3.00
2017-09-09T10:37:33.455Z,4.00
2017-09-09T10:38:34.183Z,3.00
2017-09-09T10:39:34.935Z,3.00
2017-09-09T10:40:35.665Z,3.00
2017-09-09T10:41:36.398Z,5.00
2017-09-09T10:42:37.122Z,4.00
2017-09-09T10:43:37.851Z,3.00
2017-09-09T10:44:38.581Z,3.00
2017-09-09T10:45:39.312Z,3.00
2017-09-09T10:46:40.040Z,5.00
2017-09-09T10:47:40.775Z,4.00
2017-09-09T10:48:41.529Z,3.00
2017-09-09T10:49:42.280Z,4.00
2017-09-09T10:50:43.014Z,3.00
2017-09-09T10:51:43.746Z,3.00
2017-09-09T10:52:44.481Z,4.00
2017-09-09T10:53:45.235Z,4.00
2017-09-09T10:54:45.987Z,3.00
2017-09-09T10:55:46.720Z,3.00
2017-09-09T10:56:47.455Z,3.00
2017-09-09T10:57:48.184Z,3.00
2017-09-09T10:58:48.921Z,3.00
2017-09-09T10:59:49.655Z,3.00
2017-09-09T11:00:50.390Z,2.00
2017-09-09T11:01:51.122Z,3.00
2017-09-09T11:02:51.856Z,4.00
2017-09-09T11:03:52.594Z,2.00
2017-09-09T11:04:53.329Z,3.00
2017-09-09T11:05:54.065Z,2.00
2017-09-09T11:06:54.803Z,4.00
2017-09-09T11:07:55.542Z,3.00
2017-09-09T11:08:56.283Z,3.00
2017-09-09T11:09:57.021Z,3.00
2017-09-09T11:10:57.760Z,2.00
2017-09-09T11:11:58.502Z,3.00
2017-09-09T11:12:59.247Z,3.00
2017-09-09T11:13:59.988Z,3.00
2017-09-09T11:15:00.757Z,3.00
2017-09-09T11:16:01.500Z,2.00
2017-09-09T11:17:02.245Z,3.00
2017-09-09T11:18:02.987Z,2.00
2017-09-09T11:19:03.755Z,2.00
2017-09-09T11:20:04.497Z,3.00
2017-09-09T11:22:20.474Z,3.00
2017-09-09T11:23:21.244Z,3.00
2017-09-09T11:24:22.001Z,2.00
2017-09-09T11:25:22.744Z,2.00
2017-09-09T11:26:23.489Z,3.00
2017-09-09T11:27:24.234Z,2.00
2017-09-09T11:28:24.979Z,2.00
2017-09-09T11:29:25.726Z,2.00
2017-09-09T11:30:26.469Z,2.00
2017-09-09T11:31:27.210Z,2.00
2017-09-09T11:32:27.951Z,2.00
2017-09-09T11:33:28.696Z,2.00
2017-09-09T11:34:29.438Z,2.00
2017-09-09T11:35:30.177Z,2.00
2017-09-09T11:36:30.918Z,2.00
2017-09-09T11:37:31.681Z,3.00
2017-09-09T11:38:32.421Z,3.00
2017-09-09T11:39:33.166Z,4.00
2017-09-09T11:40:33.937Z,3.00
2017-09-09T11:41:34.699Z,3.00
2017-09-09T11:42:35.464Z,2.00
2017-09-09T11:43:36.212Z,3.00
2017-09-09T11:44:36.949Z,3.00
2017-09-09T11:45:37.689Z,2.00
2017-09-09T11:46:38.431Z,2.00
2017-09-09T11:47:39.171Z,2.00
2017-09-09T11:48:39.912Z,3.00
2017-09-09T11:49:40.654Z,5.00
2017-09-09T11:50:41.395Z,3.00
2017-09-09T11:51:42.135Z,4.00
2017-09-09T11:52:42.895Z,2.00
2017-09-09T11:53:43.661Z,3.00
2017-09-09T11:54:44.421Z,3.00
2017-09-09T11:55:45.163Z,2.00
2017-09-09T11:56:45.905Z,2.00
2017-09-09T11:57:46.643Z,3.00
2017-09-09T11:58:47.407Z,2.00
2017-09-09T11:59:48.169Z,2.00
2017-09-09T12:00:48.913Z,2.00
2017-09-09T12:01:49.652Z,2.00
2017-09-09T12:02:50.416Z,2.00
2017-09-09T12:03:51.159Z,2.00
2017-09-09T12:04:51.899Z,2.00
2017-09-09T12:05:52.662Z,3.00
2017-09-09T12:06:53.404Z,2.00
2017-09-09T12:07:54.146Z,2.00
2017-09-09T12:08:54.887Z,2.00
2017-09-09T12:09:55.629Z,2.00
2017-09-09T12:10:56.393Z,2.00
2017-09-09T12:11:57.137Z,1.00
2017-09-09T12:12:57.877Z,2.00
2017-09-09T12:13:58.619Z,2.00
2017-09-09T12:14:59.382Z,2.00
2017-09-09T12:16:00.128Z,2.00
2017-09-09T12:17:00.869Z,3.00
2017-09-09T12:18:01.612Z,2.00
2017-09-09T12:19:02.357Z,2.00
2017-09-09T12:20:03.099Z,2.00
2017-09-09T12:21:03.840Z,2.00
2017-09-09T12:22:04.582Z,2.00
2017-09-09T12:23:05.325Z,2.00
2017-09-09T12:24:06.065Z,2.00
2017-09-09T12:25:06.811Z,2.00
2017-09-09T12:26:07.552Z,1.00
2017-09-09T12:27:08.295Z,2.00
2017-09-09T12:28:09.035Z,2.00
2017-09-09T12:29:09.779Z,2.00
2017-09-09T12:30:10.524Z,3.00
2017-09-09T12:31:11.268Z,3.00
2017-09-09T12:32:12.002Z,2.00
2017-09-09T12:33:12.741Z,2.00
2017-09-09T12:34:13.503Z,2.00
2017-09-09T12:35:14.237Z,2.00
2017-09-09T12:36:14.979Z,2.00
2017-09-09T12:37:15.717Z,2.00
2017-09-09T12:38:16.479Z,1.00
2017-09-09T12:39:17.226Z,3.00
2017-09-09T12:40:17.974Z,2.00
2017-09-09T12:41:18.710Z,2.00
2017-09-09T12:42:19.475Z,3.00
2017-09-09T12:43:20.217Z,4.00
2017-09-09T12:44:20.958Z,3.00
2017-09-09T12:45:21.697Z,3.00
2017-09-09T12:46:22.444Z,2.00
2017-09-09T12:47:23.187Z,2.00
2017-09-09T12:48:23.929Z,3.00
2017-09-09T12:49:24.667Z,3.00
2017-09-09T12:50:25.407Z,2.00
2017-09-09T12:51:26.148Z,3.00
2017-09-09T12:52:26.889Z,3.00
2017-09-09T12:53:27.650Z,3.00
2017-09-09T12:54:28.397Z,2.00
2017-09-09T12:55:29.150Z,3.00
2017-09-09T12:56:29.893Z,3.00
2017-09-09T12:57:30.630Z,2.00
2017-09-09T12:58:31.371Z,3.00
2017-09-09T12:59:32.110Z,2.00
2017-09-09T13:00:32.851Z,2.00
2017-09-09T13:01:33.590Z,2.00
2017-09-09T13:02:34.328Z,3.00
2017-09-09T13:03:35.068Z,3.00
2017-09-09T13:04:35.807Z,3.00
2017-09-09T13:05:36.542Z,3.00
2017-09-09T13:06:37.281Z,3.00
2017-09-09T13:07:38.016Z,3.00
2017-09-09T13:08:38.775Z,3.00
2017-09-09T13:09:39.509Z,3.00
2017-09-09T13:10:40.244Z,4.00
2017-09-09T13:11:40.979Z,4.00
2017-09-09T13:12:41.710Z,4.00
2017-09-09T13:13:42.444Z,4.00
2017-09-09T13:14:43.178Z,4.00
2017-09-09T13:15:43.909Z,5.00
2017-09-09T13:16:44.646Z,6.00
2017-09-09T13:17:45.380Z,5.00
2017-09-09T13:18:46.137Z,4.00
2017-09-09T13:19:46.870Z,5.00
2017-09-09T13:20:47.603Z,5.00